Time;durP1;ratioP1;P1;durP2;ratioP2;P2;SDS_P1;SDS_P2;PMS_P1;PMS_P2;Temp;Humidity;BMP_temperature;BMP_pressure;BME280_temperature;BME280_humidity;BME280_pressure;Samples;Min_cycle;Max_cycle;Signal;HPM_P1;HPM_P2
2022/05/21 00:01:54;;;;;;;8.82;5.35;;;16.30;99.90;;;;;;6161890;23;20235;-91
2022/05/21 00:04:21;;;;;;;7.90;5.03;;;;;;;;;;6162051;23;20216;-92
2022/05/21 00:06:47;;;;;;;10.00;6.10;;;15.70;99.90;;;;;;6160590;23;20651;-90
2022/05/21 00:09:13;;;;;;;7.45;4.53;;;;;;;;;;6160788;23;20152;-90
2022/05/21 00:11:40;;;;;;;6.40;5.07;;;16.10;99.90;;;;;;6160738;23;20157;-90
2022/05/21 00:14:06;;;;;;;8.52;5.32;;;16.10;99.90;;;;;;6160643;23;20168;-90
2022/05/21 00:16:32;;;;;;;8.95;5.60;;;16.00;99.90;;;;;;6161030;23;20584;-90
2022/05/21 00:18:59;;;;;;;6.40;4.85;;;15.60;99.90;;;;;;6136467;23;20160;-91
2022/05/21 00:21:25;;;;;;;9.20;5.70;;;15.60;99.90;;;;;;6161185;23;20161;-90
2022/05/21 00:23:51;;;;;;;8.05;4.50;;;15.60;99.90;;;;;;6161024;23;20180;-90
2022/05/21 00:26:17;;;;;;;9.98;5.75;;;15.80;99.90;;;;;;6160411;23;20180;-91
2022/05/21 00:28:45;;;;;;;8.10;5.32;;;15.70;99.90;;;;;;6135778;23;20616;-91
2022/05/21 00:31:13;;;;;;;7.90;4.95;;;16.00;99.90;;;;;;6160581;23;20161;-91
2022/05/21 00:33:43;;;;;;;8.27;5.03;;;15.90;99.90;;;;;;6186529;23;20160;-92
2022/05/21 00:36:11;;;;;;;8.80;4.85;;;;;;;;;;6186384;23;20159;-91
2022/05/21 00:38:41;;;;;;;6.70;4.32;;;15.60;99.90;;;;;;6160459;23;20607;-91
2022/05/21 00:41:09;;;;;;;9.25;5.15;;;15.60;99.90;;;;;;6160538;23;20248;-91
2022/05/21 00:43:38;;;;;;;7.40;5.18;;;;;;;;;;6186602;23;20149;-91
2022/05/21 00:46:05;;;;;;;5.38;4.40;;;15.50;99.90;;;;;;6186414;23;20188;-92
2022/05/21 00:48:31;;;;;;;7.78;4.72;;;;;;;;;;6185905;23;20176;-92
2022/05/21 00:51:00;;;;;;;7.43;4.38;;;15.50;99.90;;;;;;6187369;23;20259;-91
2022/05/21 00:53:30;;;;;;;5.82;4.25;;;15.50;99.90;;;;;;6186753;23;20172;-91
2022/05/21 00:55:59;;;;;;;7.05;4.90;;;;;;;;;;6112271;23;20175;-91
2022/05/21 01:01:14;;;;;;;6.20;4.25;;;15.50;99.90;;;;;;6187568;23;20527;-91
2022/05/21 01:03:42;;;;;;;5.70;3.80;;;15.30;99.90;;;;;;6196529;23;20188;-91
2022/05/21 01:06:15;;;;;;;5.43;4.32;;;15.50;99.90;;;;;;6165659;23;20157;-92
2022/05/21 01:08:49;;;;;;;7.10;4.82;;;15.50;99.90;;;;;;6137314;23;20211;-89
2022/05/21 01:11:19;;;;;;;6.95;4.82;;;15.50;99.90;;;;;;6186256;23;20144;-92
2022/05/21 01:13:52;;;;;;;5.88;4.22;;;15.50;99.90;;;;;;6186345;23;20229;-90
2022/05/21 01:16:28;;;;;;;7.88;4.22;;;;;;;;;;6159821;23;20198;-91
2022/05/21 01:18:57;;;;;;;4.47;3.58;;;;;;;;;;6160030;23;20164;-91
2022/05/21 01:21:23;;;;;;;5.45;4.32;;;;;;;;;;6186622;23;20579;-90
2022/05/21 01:23:51;;;;;;;4.57;3.40;;;15.60;99.90;;;;;;6160307;23;20167;-91
2022/05/21 01:26:29;;;;;;;4.63;3.88;;;15.60;99.90;;;;;;6162076;23;20197;-91
2022/05/21 01:29:04;;;;;;;6.75;4.65;;;15.60;99.90;;;;;;6165332;23;20184;-91
2022/05/21 01:31:35;;;;;;;5.43;4.05;;;15.60;99.90;;;;;;6164102;23;20162;-90
2022/05/21 01:34:04;;;;;;;5.00;4.00;;;;;;;;;;6193244;23;20144;-89
2022/05/21 01:36:33;;;;;;;5.25;4.47;;;;;;;;;;6170680;23;20156;-93
2022/05/21 01:39:09;;;;;;;5.28;4.00;;;15.70;99.90;;;;;;6188308;23;20212;-91
2022/05/21 01:41:44;;;;;;;9.85;4.53;;;15.70;99.90;;;;;;6188259;23;20144;-90
2022/05/21 01:46:55;;;;;;;5.68;4.07;;;15.70;99.90;;;;;;6209937;23;20661;-88
2022/05/21 01:49:21;;;;;;;5.47;3.95;;;;;;;;;;6138330;23;20169;-91
2022/05/21 01:51:47;;;;;;;6.38;4.57;;;16.20;99.90;;;;;;6185618;23;20172;-90
2022/05/21 01:54:12;;;;;;;6.93;4.82;;;16.20;99.90;;;;;;6159448;23;20579;-88
2022/05/21 01:56:38;;;;;;;6.60;4.60;;;16.50;99.90;;;;;;6159581;23;20583;-89
2022/05/21 01:59:04;;;;;;;5.53;4.40;;;16.60;99.90;;;;;;6111022;23;20488;-87
2022/05/21 02:01:30;;;;;;;6.35;4.00;;;16.90;99.90;;;;;;6135483;23;20156;-91
2022/05/21 02:03:56;;;;;;;4.28;3.63;;;16.60;99.90;;;;;;6159774;23;20167;-89
2022/05/21 02:06:22;;;;;;;7.65;4.22;;;;;;;;;;6160114;23;20607;-89
2022/05/21 02:08:48;;;;;;;6.90;4.43;;;16.10;99.90;;;;;;6135202;23;20200;-89
2022/05/21 02:11:13;;;;;;;4.50;3.38;;;16.40;99.90;;;;;;6160201;23;20161;-91
2022/05/21 02:13:39;;;;;;;5.05;4.10;;;16.40;99.90;;;;;;6135303;23;20165;-90
2022/05/21 02:16:05;;;;;;;6.35;4.57;;;;;;;;;;6135530;23;20160;-90
2022/05/21 02:18:31;;;;;;;7.15;4.22;;;16.30;99.90;;;;;;6160036;23;20167;-90
2022/05/21 02:20:57;;;;;;;6.13;4.47;;;;;;;;;;6186140;23;20477;-90
2022/05/21 02:23:23;;;;;;;8.20;5.22;;;16.30;99.90;;;;;;6160768;23;20157;-90
2022/05/21 02:25:49;;;;;;;6.10;4.43;;;16.20;99.90;;;;;;6135135;23;20157;-90
2022/05/21 02:28:16;;;;;;;6.22;3.97;;;16.30;99.90;;;;;;6159782;23;20203;-90
2022/05/21 02:30:42;;;;;;;7.28;4.88;;;16.40;99.90;;;;;;6185585;23;20202;-90
2022/05/21 02:33:09;;;;;;;7.28;4.57;;;16.40;99.90;;;;;;6185903;23;20149;-90
2022/05/21 02:35:35;;;;;;;6.75;4.65;;;16.40;99.90;;;;;;6186181;23;20160;-91
2022/05/21 02:40:45;;;;;;;7.35;5.47;;;16.40;99.90;;;;;;6185804;23;20207;-90
2022/05/21 02:43:11;;;;;;;6.25;4.78;;;16.40;99.90;;;;;;6135093;23;20518;-90
2022/05/21 02:45:37;;;;;;;8.52;5.57;;;;;;;;;;6185685;23;20188;-90
2022/05/21 02:48:03;;;;;;;7.35;5.07;;;16.40;99.90;;;;;;6159900;23;20227;-90
2022/05/21 02:50:33;;;;;;;7.20;4.93;;;16.30;99.90;;;;;;6135412;23;20168;-89
2022/05/21 02:53:01;;;;;;;8.55;5.93;;;16.30;99.90;;;;;;6159764;23;20163;-90
2022/05/21 02:55:26;;;;;;;10.35;5.10;;;16.30;99.90;;;;;;6186041;23;20156;-89
2022/05/21 02:57:52;;;;;;;9.43;5.82;;;;;;;;;;6134913;23;20191;-90
2022/05/21 03:00:25;;;;;;;9.77;5.80;;;16.30;99.90;;;;;;6186429;23;20155;-90
2022/05/21 03:02:50;;;;;;;6.25;4.63;;;16.20;99.90;;;;;;6185702;23;20584;-90
2022/05/21 03:05:17;;;;;;;7.00;5.22;;;16.20;99.90;;;;;;6161932;23;20184;-91
2022/05/21 03:07:46;;;;;;;7.05;5.38;;;16.20;99.90;;;;;;6187540;23;20184;-90
2022/05/21 03:10:22;;;;;;;7.50;5.80;;;16.20;99.90;;;;;;6161396;23;20606;-91
2022/05/21 03:12:54;;;;;;;6.53;4.93;;;16.20;99.90;;;;;;6162837;23;20243;-90
2022/05/21 03:15:51;;;;;;;6.68;4.80;;;16.20;99.90;;;;;;6163774;23;20161;-90
2022/05/21 03:18:17;;;;;;;5.85;4.10;;;16.20;99.90;;;;;;6128820;23;20168;-89
2022/05/21 03:20:43;;;;;;;8.02;5.30;;;16.20;99.90;;;;;;6160338;23;20157;-90
2022/05/21 03:23:12;;;;;;;7.10;5.43;;;16.30;99.90;;;;;;6159652;23;20493;-90
2022/05/21 03:25:39;;;;;;;7.55;5.25;;;16.10;99.90;;;;;;6185225;23;20199;-90
2022/05/21 03:28:12;;;;;;;7.45;4.57;;;16.20;99.90;;;;;;6159857;23;20195;-90
2022/05/21 03:30:37;;;;;;;6.20;4.88;;;16.10;99.90;;;;;;6187278;23;20141;-91
2022/05/21 03:33:03;;;;;;;5.55;4.45;;;16.10;99.90;;;;;;6160686;23;20195;-90
2022/05/21 03:35:32;;;;;;;6.07;4.40;;;16.20;99.90;;;;;;6159797;23;20272;-90
2022/05/21 03:37:58;;;;;;;8.43;4.85;;;16.20;99.90;;;;;;6135736;23;20161;-90
2022/05/21 03:40:26;;;;;;;7.55;4.40;;;16.20;99.90;;;;;;6134997;23;20675;-90
2022/05/21 03:42:52;;;;;;;6.78;4.35;;;16.20;99.90;;;;;;6161360;23;20160;-89
2022/05/21 03:45:18;;;;;;;5.30;3.78;;;16.20;99.90;;;;;;6161469;23;20160;-89
2022/05/21 03:47:45;;;;;;;6.35;4.63;;;;;;;;;;6161349;23;20518;-89
2022/05/21 03:50:14;;;;;;;6.97;4.45;;;16.30;99.90;;;;;;6136878;23;20269;-89
2022/05/21 03:52:40;;;;;;;5.82;4.30;;;16.30;99.90;;;;;;6186731;23;20244;-89
2022/05/21 03:55:07;;;;;;;5.88;4.07;;;16.20;99.90;;;;;;6204963;23;20136;-89
2022/05/21 03:57:33;;;;;;;7.13;4.82;;;16.50;99.90;;;;;;6214874;23;20188;-90
2022/05/21 03:59:59;;;;;;;6.10;4.40;;;16.10;99.90;;;;;;6189459;23;20148;-92
2022/05/21 04:02:25;;;;;;;4.47;3.72;;;16.40;99.90;;;;;;6188950;23;20159;-92
2022/05/21 04:04:51;;;;;;;4.50;3.60;;;16.30;99.90;;;;;;6188557;23;20149;-91
2022/05/21 04:07:17;;;;;;;7.25;4.68;;;16.40;99.90;;;;;;6214316;23;20184;-91
2022/05/21 04:09:43;;;;;;;5.82;4.10;;;16.30;99.90;;;;;;6188770;23;20144;-90
2022/05/21 04:12:09;;;;;;;6.25;4.50;;;16.50;99.90;;;;;;6189201;23;20133;-89
2022/05/21 04:14:35;;;;;;;6.15;4.45;;;16.60;99.90;;;;;;6140027;23;20197;-91
2022/05/21 04:17:04;;;;;;;5.55;3.78;;;16.40;99.90;;;;;;6163920;23;20156;-89
2022/05/21 04:19:31;;;;;;;4.70;3.72;;;16.40;99.90;;;;;;6214028;23;20148;-93
2022/05/21 04:21:57;;;;;;;5.60;3.63;;;16.70;99.90;;;;;;6188217;23;20187;-94
2022/05/21 04:24:23;;;;;;;5.78;4.00;;;16.30;99.90;;;;;;6213796;23;20161;-90
2022/05/21 04:26:52;;;;;;;5.97;4.28;;;16.50;99.90;;;;;;6213988;23;20163;-90
2022/05/21 04:29:19;;;;;;;4.28;3.70;;;16.50;99.90;;;;;;6142976;23;20577;-88
2022/05/21 04:31:51;;;;;;;4.60;3.47;;;16.60;99.90;;;;;;6188095;23;20148;-89
2022/05/21 04:34:20;;;;;;;5.43;3.50;;;;;;;;;;6161400;23;20170;-88
2022/05/21 04:36:48;;;;;;;5.53;3.85;;;;;;;;;;6138279;23;20160;-90
2022/05/21 04:39:23;;;;;;;5.28;3.75;;;16.90;99.90;;;;;;6162520;23;20196;-89
2022/05/21 04:42:00;;;;;;;4.00;3.05;;;17.10;99.90;;;;;;6164501;23;20156;-88
2022/05/21 04:44:39;;;;;;;3.47;3.17;;;17.20;99.90;;;;;;6164618;23;20171;-92
2022/05/21 04:47:07;;;;;;;2.85;2.58;;;17.20;99.90;;;;;;6142149;23;20523;-88
2022/05/21 04:49:34;;;;;;;2.80;2.50;;;17.30;99.90;;;;;;6163822;23;20161;-90
2022/05/21 04:52:02;;;;;;;4.00;3.10;;;17.40;99.90;;;;;;6187842;23;20160;-90
2022/05/21 04:54:38;;;;;;;6.13;3.42;;;17.30;99.90;;;;;;6162459;23;20195;-88
2022/05/21 04:57:06;;;;;;;5.07;2.83;;;17.40;99.90;;;;;;6164389;23;20156;-89
2022/05/21 04:59:35;;;;;;;2.90;2.38;;;;;;;;;;6189192;23;20149;-89
2022/05/21 05:02:02;;;;;;;4.60;2.92;;;;;;;;;;6160372;23;20156;-87
2022/05/21 05:04:28;;;;;;;3.08;2.42;;;;;;;;;;6160400;23;20523;-89
2022/05/21 05:06:56;;;;;;;3.63;2.65;;;;;;;;;;6159848;23;20239;-87
2022/05/21 05:09:27;;;;;;;2.97;2.60;;;;;;;;;;6186360;23;20646;-85
2022/05/21 05:11:53;;;;;;;3.88;3.35;;;;;;;;;;6160254;23;20160;-88
2022/05/21 05:14:19;;;;;;;4.10;2.88;;;;;;;;;;6160497;23;20156;-87
2022/05/21 05:16:46;;;;;;;3.70;3.00;;;;;;;;;;6160090;23;20167;-87
2022/05/21 05:19:12;;;;;;;3.20;2.60;;;;;;;;;;6185987;23;20148;-87
2022/05/21 05:21:45;;;;;;;3.35;2.85;;;17.70;99.90;;;;;;6159730;23;20260;-87
2022/05/21 05:24:11;;;;;;;4.90;3.15;;;;;;;;;;6159590;23;20192;-88
2022/05/21 05:26:37;;;;;;;3.30;2.90;;;;;;;;;;6159556;23;20183;-86
2022/05/21 05:29:05;;;;;;;6.13;2.90;;;;;;;;;;6159427;23;20179;-87
2022/05/21 05:31:33;;;;;;;3.78;3.28;;;18.30;99.90;;;;;;6185934;23;20156;-87
2022/05/21 05:34:01;;;;;;;4.28;3.30;;;;;;;;;;6110771;23;20169;-86
2022/05/21 05:36:29;;;;;;;3.60;2.92;;;18.40;99.90;;;;;;6185651;23;20223;-87
2022/05/21 05:38:59;;;;;;;3.85;2.70;;;;;;;;;;6159528;23;20211;-87
2022/05/21 05:41:26;;;;;;;3.35;2.97;;;18.70;99.90;;;;;;6159428;23;20160;-88
2022/05/21 05:43:56;;;;;;;4.25;2.75;;;18.80;99.90;;;;;;6185468;23;20149;-87
2022/05/21 05:46:25;;;;;;;4.43;3.13;;;18.80;99.90;;;;;;6158513;23;20644;-90
2022/05/21 05:48:53;;;;;;;5.53;3.97;;;;;;;;;;6159761;23;20227;-91
2022/05/21 05:51:20;;;;;;;4.13;2.88;;;;;;;;;;6185085;23;20153;-89
2022/05/21 05:53:52;;;;;;;3.00;2.63;;;18.90;99.90;;;;;;6160283;23;20192;-87
2022/05/21 05:56:20;;;;;;;4.43;3.53;;;;;;;;;;6159130;23;20757;-89
2022/05/21 06:01:43;;;;;;;3.20;2.58;;;19.40;99.90;;;;;;6185937;23;20164;-88
2022/05/21 06:04:12;;;;;;;3.15;2.80;;;19.20;99.90;;;;;;6187879;23;20137;-88
2022/05/21 06:06:44;;;;;;;4.35;3.05;;;19.30;99.90;;;;;;6135749;23;20161;-90
2022/05/21 06:09:35;;;;;;;4.35;2.17;;;19.10;99.90;;;;;;6160694;23;20210;-90
2022/05/21 06:12:06;;;;;;;4.45;3.55;;;19.10;99.90;;;;;;6137399;23;20218;-90
2022/05/21 06:14:52;;;;;;;;;;;;;;;;;;;;;
2022/05/21 06:17:27;;;;;;;1.95;1.55;;;19.00;99.90;;;;;;6161366;23;20631;-88
2022/05/21 06:20:21;;;;;;;;;;;;;;;;;;;;;
2022/05/21 06:22:48;;;;;;;2.35;1.70;;;18.80;99.90;;;;;;6184773;23;20239;-87
2022/05/21 06:25:18;;;;;;;3.53;2.15;;;18.60;99.90;;;;;;6157926;23;20164;-87
2022/05/21 06:27:59;;;;;;;2.28;2.08;;;18.40;99.90;;;;;;6157752;23;20180;-92
2022/05/21 06:30:26;;;;;;;2.78;2.25;;;18.20;99.90;;;;;;6134350;23;20165;-90
2022/05/21 06:32:58;;;;;;;2.25;1.98;;;18.00;99.90;;;;;;6159010;23;20214;-91
2022/05/21 06:35:24;;;;;;;3.40;2.90;;;;;;;;;;6159257;23;20145;-90
2022/05/21 06:37:50;;;;;;;2.08;1.90;;;;;;;;;;6158133;23;20236;-88
2022/05/21 06:40:17;;;;;;;5.10;3.20;;;17.80;99.90;;;;;;6157909;23;20594;-87
2022/05/21 06:42:43;;;;;;;4.65;2.40;;;;;;;;;;6183589;23;20161;-88
2022/05/21 06:45:09;;;;;;;6.18;2.90;;;;;;;;;;6156532;23;20168;-89
2022/05/21 06:47:36;;;;;;;4.15;2.90;;;;;;;;;;6156522;23;20204;-87
2022/05/21 06:50:06;;;;;;;2.22;2.03;;;17.50;99.90;;;;;;6158089;23;20183;-90
2022/05/21 06:52:33;;;;;;;5.82;5.22;;;17.50;99.90;;;;;;6185595;23;20150;-88
2022/05/21 06:54:59;;;;;;;4.20;3.45;;;17.90;99.90;;;;;;6133666;23;20165;-87
2022/05/21 06:57:28;;;;;;;3.42;3.13;;;17.40;99.90;;;;;;6157248;23;20163;-88
2022/05/21 06:59:54;;;;;;;7.95;2.60;;;17.40;99.90;;;;;;6158615;23;20153;-88
2022/05/21 07:02:20;;;;;;;3.17;2.67;;;17.30;99.90;;;;;;6157795;23;20618;-89
2022/05/21 07:07:32;;;;;;;7.28;4.10;;;17.20;99.90;;;;;;6161653;23;20196;-87
2022/05/21 07:10:00;;;;;;;9.63;8.25;;;17.20;99.90;;;;;;6110182;23;20219;-88
2022/05/21 07:12:26;;;;;;;8.70;6.88;;;17.20;99.90;;;;;;6159435;23;20156;-87
2022/05/21 07:14:55;;;;;;;11.90;9.38;;;17.30;99.90;;;;;;6160737;23;20160;-87
2022/05/21 07:17:21;;;;;;;7.72;5.57;;;17.30;99.90;;;;;;6135825;23;20175;-88
2022/05/21 07:19:46;;;;;;;9.25;7.10;;;17.30;99.90;;;;;;6136162;23;20168;-87
2022/05/21 07:22:12;;;;;;;9.88;7.88;;;17.40;99.90;;;;;;6160214;23;20228;-87
2022/05/21 07:24:40;;;;;;;8.88;7.63;;;17.40;99.90;;;;;;6135852;23;20161;-87
2022/05/21 07:27:06;;;;;;;13.27;11.52;;;17.40;99.90;;;;;;6186070;23;20188;-87
2022/05/21 07:29:31;;;;;;;8.52;6.72;;;17.40;99.90;;;;;;6135234;23;20781;-89
2022/05/21 07:31:59;;;;;;;5.47;4.05;;;17.50;99.90;;;;;;6135622;23;20162;-87
2022/05/21 07:34:25;;;;;;;7.50;6.13;;;17.50;99.90;;;;;;6160247;23;20156;-89
2022/05/21 07:36:50;;;;;;;7.55;6.22;;;17.70;99.90;;;;;;6110966;23;20284;-88
2022/05/21 07:39:16;;;;;;;6.82;5.22;;;17.70;99.90;;;;;;6135984;23;20167;-88
2022/05/21 07:41:42;;;;;;;9.18;7.25;;;17.80;99.90;;;;;;6135937;23;20191;-87
2022/05/21 07:44:07;;;;;;;6.80;5.65;;;18.10;99.90;;;;;;6160465;23;20164;-90
2022/05/21 07:46:33;;;;;;;9.65;7.18;;;18.30;99.90;;;;;;6160595;23;20271;-89
2022/05/21 07:48:59;;;;;;;8.25;6.60;;;;;;;;;;6136002;23;20258;-90
2022/05/21 07:51:25;;;;;;;7.40;5.53;;;18.50;99.90;;;;;;6160359;23;20586;-90
2022/05/21 07:53:53;;;;;;;15.15;11.63;;;18.50;99.90;;;;;;6111524;23;20157;-89
2022/05/21 07:56:19;;;;;;;12.50;9.80;;;18.50;99.90;;;;;;6112874;23;20188;-90
2022/05/21 07:58:45;;;;;;;6.43;5.57;;;18.40;99.90;;;;;;6186994;23;20163;-88
2022/05/21 08:01:12;;;;;;;4.68;4.18;;;18.40;99.90;;;;;;6111699;23;20160;-91
2022/05/21 08:03:38;;;;;;;4.88;4.00;;;18.40;99.90;;;;;;6136280;23;20184;-90
2022/05/21 08:06:06;;;;;;;5.70;4.18;;;18.40;99.90;;;;;;6135704;23;20244;-89
2022/05/21 08:08:32;;;;;;;5.70;4.43;;;18.40;99.90;;;;;;6111890;23;20679;-87
2022/05/21 08:11:00;;;;;;;8.80;6.50;;;18.60;99.90;;;;;;6137534;23;20161;-89
2022/05/21 08:13:26;;;;;;;4.68;3.85;;;18.60;99.90;;;;;;6168747;23;20171;-89
2022/05/21 08:15:52;;;;;;;6.35;4.65;;;18.70;99.90;;;;;;6166925;23;20462;-88
2022/05/21 08:18:18;;;;;;;4.35;3.60;;;;;;;;;;6167019;23;20160;-90
2022/05/21 08:20:43;;;;;;;5.70;3.60;;;19.30;99.90;;;;;;6209221;23;20152;-88
2022/05/21 08:28:44;;;;;;;4.38;2.05;;;19.30;99.90;;;;;;6182605;23;20187;-93
2022/05/21 08:31:09;;;;;;;2.33;1.45;;;18.90;99.90;;;;;;6192357;23;20176;-91
2022/05/21 08:33:35;;;;;;;1.50;1.40;;;18.70;99.90;;;;;;6124430;23;20619;-92
2022/05/21 08:36:01;;;;;;;1.67;1.48;;;18.70;99.90;;;;;;6165118;23;20652;-91
2022/05/21 08:38:27;;;;;;;1.45;1.33;;;;;;;;;;6187740;23;20601;-90
2022/05/21 08:40:58;;;;;;;1.58;1.48;;;18.90;99.90;;;;;;6162752;23;20160;-90
2022/05/21 08:43:49;;;;;;;1.10;1.10;;;18.60;99.90;;;;;;6198144;23;20141;-89
2022/05/21 08:46:36;;;;;;;1.10;1.00;;;18.60;99.90;;;;;;6195042;23;20192;-89
2022/05/21 08:49:09;;;;;;;1.67;0.90;;;18.60;99.90;;;;;;6160907;23;20215;-88
2022/05/21 08:51:47;;;;;;;1.80;0.70;;;18.80;99.90;;;;;;6161922;23;20161;-90
2022/05/21 08:54:31;;;;;;;0.70;0.70;;;19.00;99.90;;;;;;6161312;23;20157;-92
2022/05/21 08:56:57;;;;;;;0.73;0.73;;;;;;;;;;6136558;23;20168;-89
2022/05/21 08:59:30;;;;;;;0.68;0.68;;;19.20;99.90;;;;;;6158470;23;20247;-90
2022/05/21 09:01:57;;;;;;;1.00;0.65;;;;;;;;;;6159228;23;20161;-91
2022/05/21 09:04:23;;;;;;;0.70;0.70;;;19.00;99.90;;;;;;6159533;23;20210;-90
2022/05/21 09:07:01;;;;;;;0.68;0.68;;;18.90;99.90;;;;;;6185649;23;20219;-88
2022/05/21 09:09:42;;;;;;;0.65;0.65;;;19.10;99.90;;;;;;6158993;23;20156;-89
2022/05/21 09:12:56;;;;;;;4.03;1.90;;;19.10;99.90;;;;;;6185262;23;20179;-88
2022/05/21 09:18:10;;;;;;;0.52;0.52;;;19.20;99.90;;;;;;6184458;23;20370;-88
2022/05/21 09:20:48;;;;;;;0.80;0.70;;;19.20;99.90;;;;;;6133810;23;20214;-86
2022/05/21 09:23:13;;;;;;;0.70;0.70;;;19.10;99.90;;;;;;6184773;23;20140;-88
2022/05/21 09:25:39;;;;;;;0.77;0.75;;;18.90;99.90;;;;;;6133921;23;20164;-89
2022/05/21 09:28:08;;;;;;;0.57;0.57;;;18.70;99.90;;;;;;6158675;23;20211;-87
2022/05/21 09:30:36;;;;;;;2.05;1.20;;;18.70;99.90;;;;;;6158375;23;20164;-86
2022/05/21 09:33:23;;;;;;;2.83;1.05;;;18.70;99.90;;;;;;6158223;23;20191;-88
2022/05/21 09:35:56;;;;;;;0.52;0.50;;;18.70;99.90;;;;;;6134707;23;20183;-85
2022/05/21 09:38:54;;;;;;;2.55;0.88;;;18.80;99.90;;;;;;6184655;23;20144;-85
2022/05/21 09:41:28;;;;;;;1.95;0.82;;;18.70;99.90;;;;;;6080013;23;20222;-87
2022/05/21 09:46:44;;;;;;;2.75;1.02;;;18.90;99.90;;;;;;6184853;23;20203;-88
2022/05/21 09:49:31;;;;;;;0.70;0.70;;;19.10;99.90;;;;;;6158649;23;20165;-87
2022/05/21 09:52:03;;;;;;;2.50;1.02;;;18.60;99.90;;;;;;6159029;23;20160;-88
2022/05/21 09:54:40;;;;;;;1.05;0.70;;;18.40;99.90;;;;;;6185474;23;20141;-91
2022/05/21 09:57:19;;;;;;;0.57;0.57;;;18.10;99.90;;;;;;6184992;23;20140;-88
2022/05/21 10:00:00;;;;;;;0.95;0.73;;;18.70;99.90;;;;;;6159101;23;20156;-87
2022/05/21 10:02:41;;;;;;;0.80;0.60;;;18.40;99.90;;;;;;6187056;23;20156;-88
2022/05/21 10:05:08;;;;;;;1.05;0.60;;;18.50;99.90;;;;;;6185611;23;20152;-87
2022/05/21 10:13:20;;;;;;;0.70;0.68;;;18.90;99.90;;;;;;6209012;23;20136;-90
2022/05/21 10:15:58;;;;;;;0.85;0.85;;;19.00;99.90;;;;;;6183707;23;20525;-89
2022/05/21 10:18:39;;;;;;;2.92;1.10;;;18.70;99.90;;;;;;6183207;23;20137;-88
2022/05/21 10:21:25;;;;;;;0.73;0.60;;;18.50;99.90;;;;;;6186195;23;20140;-88
2022/05/21 10:24:05;;;;;;;0.65;0.65;;;18.40;99.90;;;;;;6187317;23;20140;-87
2022/05/21 10:26:55;;;;;;;0.55;0.55;;;18.30;99.90;;;;;;6187220;23;20149;-88
2022/05/21 10:29:39;;;;;;;1.33;1.23;;;18.20;99.90;;;;;;6187479;23;20153;-85
2022/05/21 10:32:27;;;;;;;0.90;0.70;;;18.10;99.90;;;;;;6184289;23;20172;-87
2022/05/21 10:35:17;;;;;;;1.27;0.98;;;18.10;99.90;;;;;;6211347;23;20129;-88
2022/05/21 10:38:22;;;;;;;0.95;0.82;;;18.40;99.90;;;;;;6186040;23;20144;-87
2022/05/21 10:41:02;;;;;;;1.75;0.63;;;18.20;99.90;;;;;;6211806;23;20140;-87
2022/05/21 10:43:56;;;;;;;0.60;0.60;;;18.30;99.90;;;;;;6209918;23;20136;-87
2022/05/21 10:46:27;;;;;;;0.60;0.60;;;18.60;99.90;;;;;;6161521;23;20229;-86
2022/05/21 10:49:04;;;;;;;0.70;0.70;;;18.70;99.90;;;;;;6186607;23;20230;-87
2022/05/21 10:51:33;;;;;;;0.60;0.60;;;18.90;99.90;;;;;;6161626;23;20156;-87
2022/05/21 10:54:22;;;;;;;1.60;0.80;;;18.80;99.90;;;;;;6162399;23;20203;-88
2022/05/21 10:57:01;;;;;;;1.05;0.95;;;18.50;99.90;;;;;;6186830;23;20148;-86
2022/05/21 10:59:41;;;;;;;0.70;0.70;;;18.00;99.90;;;;;;6187410;23;20710;-87
2022/05/21 11:02:24;;;;;;;0.70;0.70;;;17.90;99.90;;;;;;6187314;23;20179;-88
2022/05/21 11:05:13;;;;;;;0.80;0.80;;;18.30;99.90;;;;;;6161121;23;20159;-90
2022/05/21 11:07:46;;;;;;;0.60;0.60;;;18.10;99.90;;;;;;6187784;23;20176;-88
2022/05/21 11:10:28;;;;;;;0.63;0.63;;;18.30;99.90;;;;;;6161863;23;20164;-93
2022/05/21 11:13:04;;;;;;;1.15;0.68;;;18.40;99.90;;;;;;6161966;23;20176;-92
2022/05/21 11:15:40;;;;;;;1.98;0.65;;;18.30;99.90;;;;;;6159752;23;20152;-88
2022/05/21 11:18:13;;;;;;;0.70;0.70;;;18.20;99.90;;;;;;6161082;23;20357;-89
2022/05/21 11:20:46;;;;;;;0.60;0.60;;;18.10;99.90;;;;;;6159922;23;20180;-88
2022/05/21 11:23:34;;;;;;;1.83;0.73;;;17.90;99.90;;;;;;6187095;23;20137;-88
2022/05/21 11:26:17;;;;;;;1.85;1.08;;;18.00;99.90;;;;;;6159821;23;20157;-90
2022/05/21 11:28:53;;;;;;;1.00;0.60;;;17.80;99.90;;;;;;6159564;23;20192;-90
2022/05/21 11:37:20;;;;;;;0.80;0.77;;;17.80;99.90;;;;;;6185775;23;20207;-89
2022/05/21 11:39:46;;;;;;;3.20;1.40;;;17.80;99.90;;;;;;6138077;23;20164;-88
2022/05/21 11:42:14;;;;;;;1.55;0.60;;;17.70;99.90;;;;;;6159732;23;20232;-89
2022/05/21 11:44:58;;;;;;;0.95;0.85;;;17.70;99.90;;;;;;6185612;23;20153;-89
2022/05/21 11:47:24;;;;;;;0.55;0.55;;;17.70;99.90;;;;;;6159148;23;20489;-87
2022/05/21 11:49:57;;;;;;;1.23;1.02;;;17.80;99.90;;;;;;6158987;23;20184;-88
2022/05/21 11:52:52;;;;;;;0.60;0.60;;;17.90;99.90;;;;;;6159761;23;20167;-88
2022/05/21 11:55:18;;;;;;;0.90;0.70;;;18.00;99.90;;;;;;6185551;23;20260;-87
2022/05/21 11:57:46;;;;;;;6.75;0.90;;;18.10;99.90;;;;;;6159494;23;20241;-88
2022/05/21 12:00:18;;;;;;;0.85;0.85;;;18.10;99.90;;;;;;6159339;23;20572;-89
2022/05/21 12:02:59;;;;;;;0.65;0.60;;;18.10;99.90;;;;;;6160773;23;20366;-94
2022/05/21 12:05:34;;;;;;;0.55;0.55;;;17.90;99.90;;;;;;6159824;23;20194;-89
2022/05/21 12:08:33;;;;;;;1.55;0.73;;;17.80;99.90;;;;;;6166231;23;20215;-88
2022/05/21 12:11:06;;;;;;;1.10;1.08;;;17.70;99.90;;;;;;6189079;23;20144;-90
2022/05/21 12:13:35;;;;;;;1.52;1.00;;;17.70;99.90;;;;;;6162312;23;20160;-91
2022/05/21 12:16:01;;;;;;;4.10;0.75;;;17.90;99.90;;;;;;6186222;23;20152;-89
2022/05/21 12:18:35;;;;;;;0.52;0.52;;;17.90;99.90;;;;;;6160601;23;20552;-89
2022/05/21 12:21:01;;;;;;;0.75;0.75;;;18.00;99.90;;;;;;6159455;23;20171;-87
2022/05/21 12:23:31;;;;;;;1.30;0.68;;;18.20;99.90;;;;;;6191045;23;20164;-89
2022/05/21 12:26:18;;;;;;;1.13;0.85;;;18.10;99.90;;;;;;6165291;23;20186;-89
2022/05/21 12:28:51;;;;;;;0.75;0.60;;;17.90;99.90;;;;;;6158849;23;20192;-89
2022/05/21 12:31:38;;;;;;;0.75;0.75;;;18.20;99.90;;;;;;6187717;23;20153;-90
2022/05/21 12:34:22;;;;;;;0.50;0.50;;;18.30;99.90;;;;;;6163360;23;20606;-91
2022/05/21 12:37:10;;;;;;;1.00;0.90;;;18.70;99.90;;;;;;6188401;23;20230;-89
2022/05/21 12:39:50;;;;;;;0.70;0.70;;;18.90;99.90;;;;;;6163289;23;20156;-91
2022/05/21 12:42:39;;;;;;;0.95;0.90;;;20.00;99.90;;;;;;6162282;23;20596;-89
2022/05/21 12:45:09;;;;;;;0.70;0.70;;;21.10;99.90;;;;;;6186833;23;20137;-89
2022/05/21 12:47:43;;;;;;;0.50;0.50;;;18.70;99.10;;;;;;6160607;23;20203;-89
2022/05/21 12:50:26;;;;;;;0.80;0.80;;;18.60;99.30;;;;;;6160787;23;20476;-90
2022/05/21 12:53:06;;;;;;;0.77;0.77;;;;;;;;;;6067634;23;20218;-91
2022/05/21 12:55:37;;;;;;;0.60;0.60;;;18.60;99.60;;;;;;6168877;23;20160;-87
2022/05/21 12:58:12;;;;;;;3.60;0.80;;;18.80;99.90;;;;;;6160754;23;20268;-87
2022/05/21 13:01:01;;;;;;;;;;;;;;;;;;;;;
2022/05/21 13:03:40;;;;;;;0.60;0.60;;;18.90;98.40;;;;;;6186890;23;20235;-88
2022/05/21 13:06:12;;;;;;;1.08;1.08;;;19.10;98.00;;;;;;6136892;23;20171;-88
2022/05/21 13:08:41;;;;;;;2.78;1.00;;;19.00;94.10;;;;;;6160621;23;20196;-85
2022/05/21 13:11:24;;;;;;;0.70;0.70;;;19.00;93.20;;;;;;6160421;23;20227;-86
2022/05/21 13:14:16;;;;;;;0.68;0.68;;;18.70;93.30;;;;;;6186706;23;20176;-88
2022/05/21 13:16:58;;;;;;;0.80;0.80;;;18.70;92.10;;;;;;6158491;23;20187;-87
2022/05/21 13:19:43;;;;;;;0.60;0.60;;;18.70;93.80;;;;;;6186609;23;20559;-86
2022/05/21 13:22:31;;;;;;;1.40;0.93;;;18.40;92.10;;;;;;6186203;23;20232;-92
2022/05/21 13:25:10;;;;;;;1.42;0.47;;;18.30;92.20;;;;;;6186081;23;20149;-87
2022/05/21 13:27:43;;;;;;;1.00;0.80;;;18.30;92.60;;;;;;6185535;23;20719;-89
2022/05/21 13:33:13;;;;;;;0.60;0.60;;;18.00;92.70;;;;;;6164741;23;20171;-89
2022/05/21 13:35:46;;;;;;;0.70;0.70;;;18.10;92.50;;;;;;6135835;23;20175;-89
2022/05/21 13:38:37;;;;;;;1.10;0.90;;;18.00;92.90;;;;;;6186341;23;20167;-89
2022/05/21 13:41:29;;;;;;;1.40;0.77;;;18.10;92.80;;;;;;6160683;23;20194;-90
2022/05/21 13:44:29;;;;;;;1.00;0.60;;;18.30;93.00;;;;;;6159706;23;20157;-90
2022/05/21 13:47:19;;;;;;;;;;;;;;;;;;;;;
2022/05/21 13:49:57;;;;;;;0.52;0.52;;;18.50;93.30;;;;;;6186305;23;20255;-88
2022/05/21 13:52:32;;;;;;;2.85;0.70;;;18.40;93.40;;;;;;6160130;23;20206;-90
2022/05/21 13:55:07;;;;;;;0.80;0.80;;;18.10;94.60;;;;;;6159712;23;20243;-87
2022/05/21 13:57:41;;;;;;;1.10;0.82;;;17.90;94.00;;;;;;6160959;23;20215;-87
2022/05/21 14:00:29;;;;;;;1.40;0.70;;;17.90;94.70;;;;;;6160974;23;20153;-89
2022/05/21 14:03:29;;;;;;;5.07;1.40;;;18.10;91.70;;;;;;6186614;23;20152;-89
2022/05/21 14:06:22;;;;;;;0.73;0.65;;;18.20;91.90;;;;;;6162109;23;20210;-92
2022/05/21 14:12:20;;;;;;;2.00;1.38;;;18.00;92.00;;;;;;6194611;23;20156;-90
2022/05/21 14:14:55;;;;;;;1.23;0.90;;;;;;;;;;6168577;23;20157;-89
2022/05/21 14:17:52;;;;;;;;;;;;;;;;;;;;;